Ikra — TCBI2 — position and weather

sailwx.info

Track history (hours):
 
Tides and Currents Weather Stations Pressure Air Temp Water Temp Dewpoint Dewpoint Depression Visibility Wind Speed Wind Dir Waves Ship Positions

Ikra

Last reported at 2017-Aug-16 03:44 UTC. Time now 2018-Feb-24 04:42 UTC.
Position N 35°58' E 032°53'.
Warning: this ship's position is months out of date.

Length 83 m; draft 3.8 m.

Type: Cargo ship. MMSI: 271002057.

Date/timePositionNaut miles runAvg speedWind from/ knotsBaromVisibWave heightAir tempDewpointWater temp
2017-Aug-16 03:44N 35°58' E 032°53'5 8.2
2017-Aug-16 03:10N 35°56' E 032°47'1 8.8
2017-Aug-16 03:01N 35°57' E 032°45'4 8.9
2017-Aug-16 02:30N 35°57' E 032°40'30 8.4
2017-Aug-15 22:57N 36°16' E 032°11'5 8.8
2017-Aug-15 22:19N 36°20' E 032°07'3 8.9
2017-Aug-15 21:59N 36°22' E 032°05'4 8.8
2017-Aug-15 21:28N 36°26' E 032°01'4 8.4
2017-Aug-15 21:00N 36°29' E 031°58'4 8.9
2017-Aug-15 20:31N 36°30' E 031°53'5 9.2
2017-Aug-15 20:01N 36°32' E 031°47'5 9.2
2017-Aug-15 19:30N 36°34' E 031°42'4 8.8
2017-Aug-15 19:01N 36°35' E 031°37'5 8.5
2017-Aug-15 18:27N 36°37' E 031°31'4 8.2
2017-Aug-15 17:59N 36°38' E 031°27'4 8.0
2017-Aug-15 17:30N 36°40' E 031°23'4 7.8
2017-Aug-15 16:57N 36°41' E 031°18'3 7.5
2017-Aug-15 16:30N 36°42' E 031°13'4 7.4
2017-Aug-15 16:01N 36°43' E 031°09'4 7.5
2017-Aug-15 15:30N 36°44' E 031°05'4 7.5
2017-Aug-15 15:00N 36°46' E 031°00'4 7.5
2017-Aug-15 14:29N 36°47' E 030°56'4 7.9
2017-Aug-15 14:01N 36°48' E 030°51'4 8.1
2017-Aug-15 13:31N 36°49' E 030°47'4 8.1
2017-Aug-15 13:01N 36°50' E 030°42'4 7.7
2017-Aug-15 12:31N 36°50' E 030°37'0 0.5
2017-Aug-15 12:01N 36°50' E 030°37'0 0.0
2017-Aug-15 11:31N 36°50' E 030°37'0 0.0
2017-Aug-15 11:00N 36°50' E 030°37'0 0.0
2017-Aug-15 10:31N 36°50' E 030°37'0 0.0
2017-Aug-15 10:01N 36°50' E 030°37'0 0.0
2017-Aug-15 09:31N 36°50' E 030°37'0 0.0
2017-Aug-15 09:01N 36°50' E 030°37'0 0.0
2017-Aug-15 08:31N 36°50' E 030°37'0 0.0
2017-Aug-15 08:01N 36°50' E 030°37'0 0.0
2017-Aug-15 07:31N 36°50' E 030°37'0 0.0
2017-Aug-15 07:00N 36°50' E 030°37'0 0.0
2017-Aug-15 06:31N 36°50' E 030°37'0 0.0
2017-Aug-15 06:01N 36°50' E 030°37'0 0.0
2017-Aug-15 05:31N 36°50' E 030°37'0 0.0
2017-Aug-15 05:01N 36°50' E 030°37'0 0.0
2017-Aug-15 04:31N 36°50' E 030°37'0 0.0
2017-Aug-15 04:00N 36°50' E 030°37'0 0.0
2017-Aug-15 03:31N 36°50' E 030°37'0 0.0
2017-Aug-15 03:00N 36°50' E 030°37'0 0.0
2017-Aug-15 02:31N 36°50' E 030°37'0 0.0
2017-Aug-15 02:01N 36°50' E 030°37'0 0.0
2017-Aug-15 01:31N 36°50' E 030°37'0 0.0
2017-Aug-15 01:01N 36°50' E 030°37'0 0.0
2017-Aug-15 00:31N 36°50' E 030°37'0 0.0
2017-Aug-15 00:01N 36°50' E 030°37'0 0.0
2017-Aug-14 23:31N 36°50' E 030°37'0 0.0
2017-Aug-14 23:01N 36°50' E 030°37'0 0.0
2017-Aug-14 22:31N 36°50' E 030°37'0 0.0
2017-Aug-14 22:01N 36°50' E 030°37'0 0.0
2017-Aug-14 21:31N 36°50' E 030°37'0 0.0
2017-Aug-14 21:01N 36°50' E 030°37'0 0.0
2017-Aug-14 20:31N 36°50' E 030°37'0 0.0
2017-Aug-14 20:01N 36°50' E 030°37'0 0.0
2017-Aug-14 19:31N 36°50' E 030°37'0 0.0
2017-Aug-14 19:01N 36°50' E 030°37'0 0.0
2017-Aug-14 18:31N 36°50' E 030°37'0 0.0
2017-Aug-14 18:01N 36°50' E 030°37'0 0.0
2017-Aug-14 17:31N 36°50' E 030°37'0 0.0
2017-Aug-14 17:01N 36°50' E 030°37'0 0.0
2017-Aug-14 16:31N 36°50' E 030°37'0 0.0
2017-Aug-14 16:01N 36°50' E 030°37'0 0.0
2017-Aug-14 15:31N 36°50' E 030°37'0 0.0
2017-Aug-14 15:01N 36°50' E 030°37'0 0.0
2017-Aug-14 14:31N 36°50' E 030°37'0 0.0
2017-Aug-14 14:01N 36°50' E 030°37'0 0.0
2017-Aug-14 13:30N 36°50' E 030°37'0 0.0
2017-Aug-14 13:01N 36°50' E 030°37'0 0.0
2017-Aug-14 12:31N 36°50' E 030°37'0 0.0
2017-Aug-14 12:01N 36°50' E 030°37'0 0.0
2017-Aug-14 11:31N 36°50' E 030°37'0 0.0
2017-Aug-14 11:01N 36°50' E 030°37'0 0.0
2017-Aug-14 10:31N 36°50' E 030°37'0 0.0
2017-Aug-14 10:01N 36°50' E 030°37'0 0.0
2017-Aug-14 09:31N 36°50' E 030°37'0 0.0
2017-Aug-14 09:01N 36°50' E 030°37'0 0.0
2017-Aug-14 08:31N 36°50' E 030°37'0 0.0
2017-Aug-14 08:01N 36°50' E 030°37'0 0.0
2017-Aug-14 07:31N 36°50' E 030°37'0 0.0
2017-Aug-14 07:01N 36°50' E 030°37'0 0.0
2017-Aug-14 06:31N 36°50' E 030°37'0 0.0
2017-Aug-14 06:01N 36°50' E 030°37'0 0.1
2017-Aug-14 05:31N 36°50' E 030°37'1 1.0
2017-Aug-14 05:00N 36°50' E 030°37'1 1.5
2017-Aug-14 04:31N 36°50' E 030°37'0 0.0
2017-Aug-14 04:01N 36°50' E 030°37'0 0.0
2017-Aug-14 03:30N 36°50' E 030°37'0 0.0
2017-Aug-14 03:01N 36°50' E 030°37'0 0.0
2017-Aug-14 02:30N 36°50' E 030°37'0 0.0
2017-Aug-14 02:01N 36°50' E 030°37'0 0.0
2017-Aug-14 01:31N 36°50' E 030°37'0 0.0
2017-Aug-14 01:01N 36°50' E 030°37'0 0.1
2017-Aug-14 00:31N 36°50' E 030°37'2 3.1
2017-Aug-14 00:00N 36°48' E 030°38'4 8.5
2017-Aug-13 23:31N 36°44' E 030°37'5 9.1
2017-Aug-13 23:01N 36°39' E 030°37'4 9.0
2017-Aug-13 22:31N 36°35' E 030°37'4 8.6
2017-Aug-13 22:01N 36°31' E 030°36'4 8.5
2017-Aug-13 21:30N 36°26' E 030°35'4 8.5
2017-Aug-13 21:01N 36°22' E 030°34'4 8.5
2017-Aug-13 20:30N 36°18' E 030°33'5 8.5
2017-Aug-13 19:57N 36°14' E 030°30'4 8.6
2017-Aug-13 19:28N 36°10' E 030°27'  
2017-Aug-08 21:31N 40°45' E 029°31'3 9.1
2017-Aug-08 21:14N 40°44' E 029°27'2 9.3
2017-Aug-08 21:00N 40°44' E 029°25'4 7.2
2017-Aug-08 20:30N 40°43' E 029°20'4 8.9
2017-Aug-08 20:01N 40°44' E 029°14'5 8.7
2017-Aug-08 19:28N 40°45' E 029°08'5 9.3
2017-Aug-08 18:52N 40°49' E 029°03'3 9.3
2017-Aug-08 18:30N 40°51' E 028°59'  
Track history (hours):
 
Tides and Currents Weather Stations Pressure Air Temp Water Temp Dewpoint Dewpoint Depression Visibility Wind Speed Wind Dir Waves Ship Positions

Ikra

Last reported at 2017-Aug-16 03:44 UTC. Time now 2018-Feb-24 04:42 UTC.
Position N 35°58' E 032°53'.
Warning: this ship's position is months out of date.

Length 83 m; draft 3.8 m.

Type: Cargo ship. MMSI: 271002057.

Date/timePositionNaut miles runAvg speedWind from/ knotsBaromVisibWave heightAir tempDewpointWater temp
2017-Aug-16 03:44N 35°58' E 032°53'5 8.2
2017-Aug-16 03:10N 35°56' E 032°47'1 8.8
2017-Aug-16 03:01N 35°57' E 032°45'4 8.9
2017-Aug-16 02:30N 35°57' E 032°40'30 8.4
2017-Aug-15 22:57N 36°16' E 032°11'5 8.8
2017-Aug-15 22:19N 36°20' E 032°07'3 8.9
2017-Aug-15 21:59N 36°22' E 032°05'4 8.8
2017-Aug-15 21:28N 36°26' E 032°01'4 8.4
2017-Aug-15 21:00N 36°29' E 031°58'4 8.9
2017-Aug-15 20:31N 36°30' E 031°53'5 9.2
2017-Aug-15 20:01N 36°32' E 031°47'5 9.2
2017-Aug-15 19:30N 36°34' E 031°42'4 8.8
2017-Aug-15 19:01N 36°35' E 031°37'5 8.5
2017-Aug-15 18:27N 36°37' E 031°31'4 8.2
2017-Aug-15 17:59N 36°38' E 031°27'4 8.0
2017-Aug-15 17:30N 36°40' E 031°23'4 7.8
2017-Aug-15 16:57N 36°41' E 031°18'3 7.5
2017-Aug-15 16:30N 36°42' E 031°13'4 7.4
2017-Aug-15 16:01N 36°43' E 031°09'4 7.5
2017-Aug-15 15:30N 36°44' E 031°05'4 7.5
2017-Aug-15 15:00N 36°46' E 031°00'4 7.5
2017-Aug-15 14:29N 36°47' E 030°56'4 7.9
2017-Aug-15 14:01N 36°48' E 030°51'4 8.1
2017-Aug-15 13:31N 36°49' E 030°47'4 8.1
2017-Aug-15 13:01N 36°50' E 030°42'4 7.7
2017-Aug-15 12:31N 36°50' E 030°37'0 0.5
2017-Aug-15 12:01N 36°50' E 030°37'0 0.0
2017-Aug-15 11:31N 36°50' E 030°37'0 0.0
2017-Aug-15 11:00N 36°50' E 030°37'0 0.0
2017-Aug-15 10:31N 36°50' E 030°37'0 0.0
2017-Aug-15 10:01N 36°50' E 030°37'0 0.0
2017-Aug-15 09:31N 36°50' E 030°37'0 0.0
2017-Aug-15 09:01N 36°50' E 030°37'0 0.0
2017-Aug-15 08:31N 36°50' E 030°37'0 0.0
2017-Aug-15 08:01N 36°50' E 030°37'0 0.0
2017-Aug-15 07:31N 36°50' E 030°37'0 0.0
2017-Aug-15 07:00N 36°50' E 030°37'0 0.0
2017-Aug-15 06:31N 36°50' E 030°37'0 0.0
2017-Aug-15 06:01N 36°50' E 030°37'0 0.0
2017-Aug-15 05:31N 36°50' E 030°37'0 0.0
2017-Aug-15 05:01N 36°50' E 030°37'0 0.0
2017-Aug-15 04:31N 36°50' E 030°37'0 0.0
2017-Aug-15 04:00N 36°50' E 030°37'0 0.0
2017-Aug-15 03:31N 36°50' E 030°37'0 0.0
2017-Aug-15 03:00N 36°50' E 030°37'0 0.0
2017-Aug-15 02:31N 36°50' E 030°37'0 0.0
2017-Aug-15 02:01N 36°50' E 030°37'0 0.0
2017-Aug-15 01:31N 36°50' E 030°37'0 0.0
2017-Aug-15 01:01N 36°50' E 030°37'0 0.0
2017-Aug-15 00:31N 36°50' E 030°37'0 0.0
2017-Aug-15 00:01N 36°50' E 030°37'0 0.0
2017-Aug-14 23:31N 36°50' E 030°37'0 0.0
2017-Aug-14 23:01N 36°50' E 030°37'0 0.0
2017-Aug-14 22:31N 36°50' E 030°37'0 0.0
2017-Aug-14 22:01N 36°50' E 030°37'0 0.0
2017-Aug-14 21:31N 36°50' E 030°37'0 0.0
2017-Aug-14 21:01N 36°50' E 030°37'0 0.0
2017-Aug-14 20:31N 36°50' E 030°37'0 0.0
2017-Aug-14 20:01N 36°50' E 030°37'0 0.0
2017-Aug-14 19:31N 36°50' E 030°37'0 0.0
2017-Aug-14 19:01N 36°50' E 030°37'0 0.0
2017-Aug-14 18:31N 36°50' E 030°37'0 0.0
2017-Aug-14 18:01N 36°50' E 030°37'0 0.0
2017-Aug-14 17:31N 36°50' E 030°37'0 0.0
2017-Aug-14 17:01N 36°50' E 030°37'0 0.0
2017-Aug-14 16:31N 36°50' E 030°37'0 0.0
2017-Aug-14 16:01N 36°50' E 030°37'0 0.0
2017-Aug-14 15:31N 36°50' E 030°37'0 0.0
2017-Aug-14 15:01N 36°50' E 030°37'0 0.0
2017-Aug-14 14:31N 36°50' E 030°37'0 0.0
2017-Aug-14 14:01N 36°50' E 030°37'0 0.0
2017-Aug-14 13:30N 36°50' E 030°37'0 0.0
2017-Aug-14 13:01N 36°50' E 030°37'0 0.0
2017-Aug-14 12:31N 36°50' E 030°37'0 0.0
2017-Aug-14 12:01N 36°50' E 030°37'0 0.0
2017-Aug-14 11:31N 36°50' E 030°37'0 0.0
2017-Aug-14 11:01N 36°50' E 030°37'0 0.0
2017-Aug-14 10:31N 36°50' E 030°37'0 0.0
2017-Aug-14 10:01N 36°50' E 030°37'0 0.0
2017-Aug-14 09:31N 36°50' E 030°37'0 0.0
2017-Aug-14 09:01N 36°50' E 030°37'0 0.0
2017-Aug-14 08:31N 36°50' E 030°37'0 0.0
2017-Aug-14 08:01N 36°50' E 030°37'0 0.0
2017-Aug-14 07:31N 36°50' E 030°37'0 0.0
2017-Aug-14 07:01N 36°50' E 030°37'0 0.0
2017-Aug-14 06:31N 36°50' E 030°37'0 0.0
2017-Aug-14 06:01N 36°50' E 030°37'0 0.1
2017-Aug-14 05:31N 36°50' E 030°37'1 1.0
2017-Aug-14 05:00N 36°50' E 030°37'1 1.5
2017-Aug-14 04:31N 36°50' E 030°37'0 0.0
2017-Aug-14 04:01N 36°50' E 030°37'0 0.0
2017-Aug-14 03:30N 36°50' E 030°37'0 0.0
2017-Aug-14 03:01N 36°50' E 030°37'0 0.0
2017-Aug-14 02:30N 36°50' E 030°37'0 0.0
2017-Aug-14 02:01N 36°50' E 030°37'0 0.0
2017-Aug-14 01:31N 36°50' E 030°37'0 0.0
2017-Aug-14 01:01N 36°50' E 030°37'0 0.1
2017-Aug-14 00:31N 36°50' E 030°37'2 3.1
2017-Aug-14 00:00N 36°48' E 030°38'4 8.5
2017-Aug-13 23:31N 36°44' E 030°37'5 9.1
2017-Aug-13 23:01N 36°39' E 030°37'4 9.0
2017-Aug-13 22:31N 36°35' E 030°37'4 8.6
2017-Aug-13 22:01N 36°31' E 030°36'4 8.5
2017-Aug-13 21:30N 36°26' E 030°35'4 8.5
2017-Aug-13 21:01N 36°22' E 030°34'4 8.5
2017-Aug-13 20:30N 36°18' E 030°33'5 8.5
2017-Aug-13 19:57N 36°14' E 030°30'4 8.6
2017-Aug-13 19:28N 36°10' E 030°27'  
2017-Aug-08 21:31N 40°45' E 029°31'3 9.1
2017-Aug-08 21:14N 40°44' E 029°27'2 9.3
2017-Aug-08 21:00N 40°44' E 029°25'4 7.2
2017-Aug-08 20:30N 40°43' E 029°20'4 8.9
2017-Aug-08 20:01N 40°44' E 029°14'5 8.7
2017-Aug-08 19:28N 40°45' E 029°08'5 9.3
2017-Aug-08 18:52N 40°49' E 029°03'3 9.3
2017-Aug-08 18:30N 40°51' E 028°59'  

Dump ship's entire track history